sensor_id;sensor_type;location;lat;lon;timestamp;P1;durP1;ratioP1;P2;durP2;ratioP2
5845;SDS011;2949;50.778;7.094;2023-04-06T00:01:06;16.50;;;7.13;;
5845;SDS011;2949;50.778;7.094;2023-04-06T00:03:32;11.90;;;8.10;;
5845;SDS011;2949;50.778;7.094;2023-04-06T00:06:02;14.10;;;7.33;;
5845;SDS011;2949;50.778;7.094;2023-04-06T00:08:28;14.23;;;7.83;;
5845;SDS011;2949;50.778;7.094;2023-04-06T00:10:54;9.50;;;6.20;;
5845;SDS011;2949;50.778;7.094;2023-04-06T00:13:19;10.87;;;7.30;;
5845;SDS011;2949;50.778;7.094;2023-04-06T00:15:45;11.93;;;7.10;;
5845;SDS011;2949;50.778;7.094;2023-04-06T00:18:11;9.63;;;6.77;;
5845;SDS011;2949;50.778;7.094;2023-04-06T00:20:36;10.23;;;6.00;;
5845;SDS011;2949;50.778;7.094;2023-04-06T00:23:02;19.43;;;8.07;;
5845;SDS011;2949;50.778;7.094;2023-04-06T00:25:28;12.63;;;7.50;;
5845;SDS011;2949;50.778;7.094;2023-04-06T00:27:54;10.00;;;7.60;;
5845;SDS011;2949;50.778;7.094;2023-04-06T00:30:20;16.00;;;7.40;;
5845;SDS011;2949;50.778;7.094;2023-04-06T00:32:45;11.30;;;7.33;;
5845;SDS011;2949;50.778;7.094;2023-04-06T00:35:11;14.53;;;7.80;;
5845;SDS011;2949;50.778;7.094;2023-04-06T00:37:36;21.80;;;7.53;;
5845;SDS011;2949;50.778;7.094;2023-04-06T00:40:02;11.93;;;6.90;;
5845;SDS011;2949;50.778;7.094;2023-04-06T00:42:28;12.13;;;7.73;;
5845;SDS011;2949;50.778;7.094;2023-04-06T00:44:57;11.23;;;7.30;;
5845;SDS011;2949;50.778;7.094;2023-04-06T00:47:24;13.63;;;7.20;;
5845;SDS011;2949;50.778;7.094;2023-04-06T00:49:50;12.07;;;6.47;;
5845;SDS011;2949;50.778;7.094;2023-04-06T00:52:17;10.23;;;6.60;;
5845;SDS011;2949;50.778;7.094;2023-04-06T00:54:43;10.63;;;6.70;;
5845;SDS011;2949;50.778;7.094;2023-04-06T00:57:10;14.10;;;7.10;;
5845;SDS011;2949;50.778;7.094;2023-04-06T00:59:38;11.43;;;6.63;;
5845;SDS011;2949;50.778;7.094;2023-04-06T01:02:06;10.30;;;7.50;;
5845;SDS011;2949;50.778;7.094;2023-04-06T01:04:32;10.30;;;6.57;;
5845;SDS011;2949;50.778;7.094;2023-04-06T01:06:59;11.03;;;7.10;;
5845;SDS011;2949;50.778;7.094;2023-04-06T01:09:26;13.00;;;7.50;;
5845;SDS011;2949;50.778;7.094;2023-04-06T01:11:53;11.70;;;7.60;;
5845;SDS011;2949;50.778;7.094;2023-04-06T01:14:19;11.10;;;7.50;;
5845;SDS011;2949;50.778;7.094;2023-04-06T01:16:44;20.07;;;8.60;;
5845;SDS011;2949;50.778;7.094;2023-04-06T01:19:10;11.07;;;7.17;;
5845;SDS011;2949;50.778;7.094;2023-04-06T01:21:37;16.97;;;8.23;;
5845;SDS011;2949;50.778;7.094;2023-04-06T01:24:03;20.33;;;7.60;;
5845;SDS011;2949;50.778;7.094;2023-04-06T01:26:30;14.37;;;6.80;;
5845;SDS011;2949;50.778;7.094;2023-04-06T01:28:56;11.90;;;7.50;;
5845;SDS011;2949;50.778;7.094;2023-04-06T01:31:22;12.60;;;7.33;;
5845;SDS011;2949;50.778;7.094;2023-04-06T01:33:48;10.03;;;6.57;;
5845;SDS011;2949;50.778;7.094;2023-04-06T01:36:14;10.50;;;6.67;;
5845;SDS011;2949;50.778;7.094;2023-04-06T01:38:40;10.80;;;6.43;;
5845;SDS011;2949;50.778;7.094;2023-04-06T01:41:06;11.90;;;6.87;;
5845;SDS011;2949;50.778;7.094;2023-04-06T01:43:32;12.13;;;7.37;;
5845;SDS011;2949;50.778;7.094;2023-04-06T01:45:58;13.30;;;7.43;;
5845;SDS011;2949;50.778;7.094;2023-04-06T01:48:24;15.73;;;6.87;;
5845;SDS011;2949;50.778;7.094;2023-04-06T01:50:50;11.53;;;7.60;;
5845;SDS011;2949;50.778;7.094;2023-04-06T01:53:16;10.50;;;6.90;;
5845;SDS011;2949;50.778;7.094;2023-04-06T01:55:41;10.33;;;6.43;;
5845;SDS011;2949;50.778;7.094;2023-04-06T01:58:07;10.77;;;7.20;;
5845;SDS011;2949;50.778;7.094;2023-04-06T02:00:32;11.37;;;5.70;;
5845;SDS011;2949;50.778;7.094;2023-04-06T02:02:58;13.73;;;6.80;;
5845;SDS011;2949;50.778;7.094;2023-04-06T02:05:24;17.80;;;7.40;;
5845;SDS011;2949;50.778;7.094;2023-04-06T02:07:50;9.30;;;5.80;;
5845;SDS011;2949;50.778;7.094;2023-04-06T02:10:16;11.90;;;6.93;;
5845;SDS011;2949;50.778;7.094;2023-04-06T02:12:42;10.67;;;7.23;;
5845;SDS011;2949;50.778;7.094;2023-04-06T02:15:08;11.70;;;6.60;;
5845;SDS011;2949;50.778;7.094;2023-04-06T02:17:34;13.97;;;7.00;;
5845;SDS011;2949;50.778;7.094;2023-04-06T02:20:00;12.63;;;6.97;;
5845;SDS011;2949;50.778;7.094;2023-04-06T02:22:26;16.47;;;6.73;;
5845;SDS011;2949;50.778;7.094;2023-04-06T02:24:52;14.73;;;7.80;;
5845;SDS011;2949;50.778;7.094;2023-04-06T02:27:17;12.53;;;7.40;;
5845;SDS011;2949;50.778;7.094;2023-04-06T02:29:43;15.17;;;7.87;;
5845;SDS011;2949;50.778;7.094;2023-04-06T02:32:08;16.73;;;8.53;;
5845;SDS011;2949;50.778;7.094;2023-04-06T02:34:34;15.90;;;7.60;;
5845;SDS011;2949;50.778;7.094;2023-04-06T02:37:00;12.00;;;7.70;;
5845;SDS011;2949;50.778;7.094;2023-04-06T02:39:25;11.53;;;8.00;;
5845;SDS011;2949;50.778;7.094;2023-04-06T02:41:51;20.00;;;8.37;;
5845;SDS011;2949;50.778;7.094;2023-04-06T02:44:17;15.20;;;8.57;;
5845;SDS011;2949;50.778;7.094;2023-04-06T02:46:42;13.97;;;6.70;;
5845;SDS011;2949;50.778;7.094;2023-04-06T02:49:08;13.67;;;8.13;;
5845;SDS011;2949;50.778;7.094;2023-04-06T02:51:33;12.07;;;7.67;;
5845;SDS011;2949;50.778;7.094;2023-04-06T02:53:59;13.47;;;7.63;;
5845;SDS011;2949;50.778;7.094;2023-04-06T02:56:24;14.03;;;7.53;;
5845;SDS011;2949;50.778;7.094;2023-04-06T02:58:51;14.83;;;8.20;;
5845;SDS011;2949;50.778;7.094;2023-04-06T03:01:16;16.00;;;7.60;;
5845;SDS011;2949;50.778;7.094;2023-04-06T03:03:42;11.67;;;7.77;;
5845;SDS011;2949;50.778;7.094;2023-04-06T03:06:08;13.50;;;7.50;;
5845;SDS011;2949;50.778;7.094;2023-04-06T03:08:33;14.50;;;8.23;;
5845;SDS011;2949;50.778;7.094;2023-04-06T03:10:59;11.67;;;6.90;;
5845;SDS011;2949;50.778;7.094;2023-04-06T03:13:25;14.63;;;7.77;;
5845;SDS011;2949;50.778;7.094;2023-04-06T03:15:50;14.70;;;8.20;;
5845;SDS011;2949;50.778;7.094;2023-04-06T03:18:20;10.83;;;7.93;;
5845;SDS011;2949;50.778;7.094;2023-04-06T03:20:48;13.27;;;8.07;;
5845;SDS011;2949;50.778;7.094;2023-04-06T03:23:13;13.00;;;7.90;;
5845;SDS011;2949;50.778;7.094;2023-04-06T03:25:39;10.97;;;7.43;;
5845;SDS011;2949;50.778;7.094;2023-04-06T03:28:05;16.20;;;6.93;;
5845;SDS011;2949;50.778;7.094;2023-04-06T03:30:30;11.30;;;6.77;;
5845;SDS011;2949;50.778;7.094;2023-04-06T03:32:56;16.63;;;7.00;;
5845;SDS011;2949;50.778;7.094;2023-04-06T03:35:22;14.13;;;7.23;;
5845;SDS011;2949;50.778;7.094;2023-04-06T03:37:47;16.00;;;6.60;;
5845;SDS011;2949;50.778;7.094;2023-04-06T03:40:13;13.30;;;7.10;;
5845;SDS011;2949;50.778;7.094;2023-04-06T03:42:38;21.67;;;7.43;;
5845;SDS011;2949;50.778;7.094;2023-04-06T03:45:04;11.20;;;7.30;;
5845;SDS011;2949;50.778;7.094;2023-04-06T03:47:30;16.60;;;8.40;;
5845;SDS011;2949;50.778;7.094;2023-04-06T03:49:56;16.00;;;7.77;;
5845;SDS011;2949;50.778;7.094;2023-04-06T03:52:21;12.50;;;7.87;;
5845;SDS011;2949;50.778;7.094;2023-04-06T03:54:48;12.40;;;7.90;;
5845;SDS011;2949;50.778;7.094;2023-04-06T03:57:14;14.90;;;8.83;;
5845;SDS011;2949;50.778;7.094;2023-04-06T03:59:39;11.93;;;8.67;;
5845;SDS011;2949;50.778;7.094;2023-04-06T04:02:05;14.00;;;7.90;;
5845;SDS011;2949;50.778;7.094;2023-04-06T04:04:30;16.80;;;8.47;;
5845;SDS011;2949;50.778;7.094;2023-04-06T04:06:56;16.90;;;9.73;;
5845;SDS011;2949;50.778;7.094;2023-04-06T04:09:22;20.57;;;10.10;;
5845;SDS011;2949;50.778;7.094;2023-04-06T04:11:47;25.93;;;8.80;;
5845;SDS011;2949;50.778;7.094;2023-04-06T04:14:13;14.63;;;8.43;;
5845;SDS011;2949;50.778;7.094;2023-04-06T04:16:38;12.70;;;8.50;;
5845;SDS011;2949;50.778;7.094;2023-04-06T04:19:04;14.43;;;9.63;;
5845;SDS011;2949;50.778;7.094;2023-04-06T04:21:30;14.83;;;8.33;;
5845;SDS011;2949;50.778;7.094;2023-04-06T04:23:56;12.67;;;8.00;;
5845;SDS011;2949;50.778;7.094;2023-04-06T04:26:22;11.47;;;6.50;;
5845;SDS011;2949;50.778;7.094;2023-04-06T04:28:47;14.13;;;6.27;;
5845;SDS011;2949;50.778;7.094;2023-04-06T04:31:13;13.13;;;7.17;;
5845;SDS011;2949;50.778;7.094;2023-04-06T04:33:38;11.47;;;7.30;;
5845;SDS011;2949;50.778;7.094;2023-04-06T04:36:04;12.40;;;7.60;;
5845;SDS011;2949;50.778;7.094;2023-04-06T04:38:30;12.47;;;7.27;;
5845;SDS011;2949;50.778;7.094;2023-04-06T04:40:55;10.30;;;6.83;;
5845;SDS011;2949;50.778;7.094;2023-04-06T04:43:21;12.20;;;6.97;;
5845;SDS011;2949;50.778;7.094;2023-04-06T04:45:47;11.17;;;6.90;;
5845;SDS011;2949;50.778;7.094;2023-04-06T04:48:12;13.00;;;8.50;;
5845;SDS011;2949;50.778;7.094;2023-04-06T04:50:38;12.77;;;6.93;;
5845;SDS011;2949;50.778;7.094;2023-04-06T04:53:03;11.93;;;7.37;;
5845;SDS011;2949;50.778;7.094;2023-04-06T04:55:32;15.67;;;6.97;;
5845;SDS011;2949;50.778;7.094;2023-04-06T04:57:57;12.77;;;7.10;;
5845;SDS011;2949;50.778;7.094;2023-04-06T05:00:23;12.30;;;7.20;;
5845;SDS011;2949;50.778;7.094;2023-04-06T05:02:49;10.67;;;6.10;;
5845;SDS011;2949;50.778;7.094;2023-04-06T05:05:15;10.83;;;7.00;;
5845;SDS011;2949;50.778;7.094;2023-04-06T05:07:40;9.30;;;6.20;;
5845;SDS011;2949;50.778;7.094;2023-04-06T05:10:06;8.63;;;5.73;;
5845;SDS011;2949;50.778;7.094;2023-04-06T05:12:32;15.80;;;7.10;;
5845;SDS011;2949;50.778;7.094;2023-04-06T05:14:58;11.77;;;6.80;;
5845;SDS011;2949;50.778;7.094;2023-04-06T05:17:23;7.70;;;6.20;;
5845;SDS011;2949;50.778;7.094;2023-04-06T05:19:49;14.63;;;7.77;;
5845;SDS011;2949;50.778;7.094;2023-04-06T05:22:15;11.50;;;6.43;;
5845;SDS011;2949;50.778;7.094;2023-04-06T05:24:42;10.17;;;6.77;;
5845;SDS011;2949;50.778;7.094;2023-04-06T05:27:08;11.60;;;6.70;;
5845;SDS011;2949;50.778;7.094;2023-04-06T05:29:34;11.17;;;6.70;;
5845;SDS011;2949;50.778;7.094;2023-04-06T05:32:00;12.77;;;7.90;;
5845;SDS011;2949;50.778;7.094;2023-04-06T05:34:26;14.73;;;7.20;;
5845;SDS011;2949;50.778;7.094;2023-04-06T05:36:52;10.83;;;6.90;;
5845;SDS011;2949;50.778;7.094;2023-04-06T05:39:17;17.80;;;7.67;;
5845;SDS011;2949;50.778;7.094;2023-04-06T05:41:43;10.40;;;6.20;;
5845;SDS011;2949;50.778;7.094;2023-04-06T05:44:09;10.23;;;6.43;;
5845;SDS011;2949;50.778;7.094;2023-04-06T05:46:34;12.77;;;7.27;;
5845;SDS011;2949;50.778;7.094;2023-04-06T05:49:00;11.00;;;7.00;;
5845;SDS011;2949;50.778;7.094;2023-04-06T05:51:26;11.20;;;6.90;;
5845;SDS011;2949;50.778;7.094;2023-04-06T05:53:52;10.93;;;7.43;;
5845;SDS011;2949;50.778;7.094;2023-04-06T05:56:17;13.27;;;7.80;;
5845;SDS011;2949;50.778;7.094;2023-04-06T05:58:43;12.27;;;7.10;;
5845;SDS011;2949;50.778;7.094;2023-04-06T06:01:09;16.23;;;7.60;;
5845;SDS011;2949;50.778;7.094;2023-04-06T06:03:35;16.60;;;8.63;;
5845;SDS011;2949;50.778;7.094;2023-04-06T06:06:01;22.73;;;10.33;;
5845;SDS011;2949;50.778;7.094;2023-04-06T06:08:27;27.27;;;10.00;;
5845;SDS011;2949;50.778;7.094;2023-04-06T06:10:53;14.70;;;7.60;;
5845;SDS011;2949;50.778;7.094;2023-04-06T06:13:19;19.93;;;8.03;;
5845;SDS011;2949;50.778;7.094;2023-04-06T06:15:45;12.40;;;7.77;;
5845;SDS011;2949;50.778;7.094;2023-04-06T06:18:11;12.03;;;7.50;;
5845;SDS011;2949;50.778;7.094;2023-04-06T06:20:36;14.10;;;7.60;;
5845;SDS011;2949;50.778;7.094;2023-04-06T06:23:02;9.70;;;6.90;;
5845;SDS011;2949;50.778;7.094;2023-04-06T06:25:28;9.10;;;6.47;;
5845;SDS011;2949;50.778;7.094;2023-04-06T06:27:55;17.03;;;6.03;;
5845;SDS011;2949;50.778;7.094;2023-04-06T06:30:21;10.47;;;5.80;;
5845;SDS011;2949;50.778;7.094;2023-04-06T06:32:47;11.50;;;6.80;;
5845;SDS011;2949;50.778;7.094;2023-04-06T06:35:12;11.77;;;6.23;;
5845;SDS011;2949;50.778;7.094;2023-04-06T06:37:38;8.90;;;5.80;;
5845;SDS011;2949;50.778;7.094;2023-04-06T06:40:04;11.40;;;6.63;;
5845;SDS011;2949;50.778;7.094;2023-04-06T06:42:30;16.50;;;5.83;;
5845;SDS011;2949;50.778;7.094;2023-04-06T06:44:56;7.87;;;5.57;;
5845;SDS011;2949;50.778;7.094;2023-04-06T06:47:21;7.47;;;5.73;;
5845;SDS011;2949;50.778;7.094;2023-04-06T06:49:47;10.33;;;6.10;;
5845;SDS011;2949;50.778;7.094;2023-04-06T06:52:12;10.47;;;5.60;;
5845;SDS011;2949;50.778;7.094;2023-04-06T06:54:38;8.30;;;5.23;;
5845;SDS011;2949;50.778;7.094;2023-04-06T06:57:04;7.40;;;5.00;;
5845;SDS011;2949;50.778;7.094;2023-04-06T06:59:29;10.47;;;5.43;;
5845;SDS011;2949;50.778;7.094;2023-04-06T07:01:55;10.50;;;5.50;;
5845;SDS011;2949;50.778;7.094;2023-04-06T07:04:20;10.90;;;5.53;;
5845;SDS011;2949;50.778;7.094;2023-04-06T07:06:46;10.60;;;5.40;;
5845;SDS011;2949;50.778;7.094;2023-04-06T07:09:11;14.07;;;6.43;;
5845;SDS011;2949;50.778;7.094;2023-04-06T07:11:37;15.27;;;7.17;;
5845;SDS011;2949;50.778;7.094;2023-04-06T07:14:02;11.67;;;5.60;;
5845;SDS011;2949;50.778;7.094;2023-04-06T07:16:28;5.70;;;4.70;;
5845;SDS011;2949;50.778;7.094;2023-04-06T07:18:53;10.87;;;5.60;;
5845;SDS011;2949;50.778;7.094;2023-04-06T07:21:19;10.60;;;5.70;;
5845;SDS011;2949;50.778;7.094;2023-04-06T07:23:45;6.93;;;4.73;;
5845;SDS011;2949;50.778;7.094;2023-04-06T07:26:12;11.27;;;5.67;;
5845;SDS011;2949;50.778;7.094;2023-04-06T07:28:38;7.50;;;5.17;;
5845;SDS011;2949;50.778;7.094;2023-04-06T07:31:04;7.90;;;5.80;;
5845;SDS011;2949;50.778;7.094;2023-04-06T07:33:29;9.67;;;6.23;;
5845;SDS011;2949;50.778;7.094;2023-04-06T07:35:55;9.23;;;5.47;;
5845;SDS011;2949;50.778;7.094;2023-04-06T07:38:22;15.03;;;5.60;;
5845;SDS011;2949;50.778;7.094;2023-04-06T07:40:47;10.27;;;5.50;;
5845;SDS011;2949;50.778;7.094;2023-04-06T07:43:13;10.23;;;5.40;;
5845;SDS011;2949;50.778;7.094;2023-04-06T07:45:38;9.53;;;5.70;;
5845;SDS011;2949;50.778;7.094;2023-04-06T07:48:04;8.83;;;5.70;;
5845;SDS011;2949;50.778;7.094;2023-04-06T07:50:30;8.60;;;5.30;;
5845;SDS011;2949;50.778;7.094;2023-04-06T07:52:55;10.83;;;6.27;;
5845;SDS011;2949;50.778;7.094;2023-04-06T07:55:22;12.63;;;6.03;;
5845;SDS011;2949;50.778;7.094;2023-04-06T07:57:48;8.23;;;5.53;;
5845;SDS011;2949;50.778;7.094;2023-04-06T08:00:13;9.53;;;6.10;;
5845;SDS011;2949;50.778;7.094;2023-04-06T08:02:39;10.27;;;5.57;;
5845;SDS011;2949;50.778;7.094;2023-04-06T08:05:05;10.27;;;6.30;;
5845;SDS011;2949;50.778;7.094;2023-04-06T08:07:32;10.30;;;6.57;;
5845;SDS011;2949;50.778;7.094;2023-04-06T08:09:57;15.30;;;5.47;;
5845;SDS011;2949;50.778;7.094;2023-04-06T08:12:23;10.53;;;6.37;;
5845;SDS011;2949;50.778;7.094;2023-04-06T08:14:48;13.80;;;5.90;;
5845;SDS011;2949;50.778;7.094;2023-04-06T08:17:14;11.90;;;6.60;;
5845;SDS011;2949;50.778;7.094;2023-04-06T08:19:41;13.17;;;6.70;;
5845;SDS011;2949;50.778;7.094;2023-04-06T08:22:08;10.30;;;5.43;;
5845;SDS011;2949;50.778;7.094;2023-04-06T08:24:34;8.37;;;5.37;;
5845;SDS011;2949;50.778;7.094;2023-04-06T08:27:00;14.27;;;7.17;;
5845;SDS011;2949;50.778;7.094;2023-04-06T08:29:25;11.87;;;6.23;;
5845;SDS011;2949;50.778;7.094;2023-04-06T08:31:51;14.50;;;6.20;;
5845;SDS011;2949;50.778;7.094;2023-04-06T08:34:17;16.23;;;7.40;;
5845;SDS011;2949;50.778;7.094;2023-04-06T08:36:42;12.80;;;5.73;;
5845;SDS011;2949;50.778;7.094;2023-04-06T08:39:08;9.87;;;6.80;;
5845;SDS011;2949;50.778;7.094;2023-04-06T08:41:34;14.20;;;6.43;;
5845;SDS011;2949;50.778;7.094;2023-04-06T08:44:00;9.43;;;5.80;;
5845;SDS011;2949;50.778;7.094;2023-04-06T08:46:28;10.00;;;5.87;;
5845;SDS011;2949;50.778;7.094;2023-04-06T08:48:59;12.90;;;7.40;;
5845;SDS011;2949;50.778;7.094;2023-04-06T08:51:27;11.20;;;7.30;;
5845;SDS011;2949;50.778;7.094;2023-04-06T08:53:55;13.00;;;7.00;;
5845;SDS011;2949;50.778;7.094;2023-04-06T08:56:22;13.73;;;6.80;;
5845;SDS011;2949;50.778;7.094;2023-04-06T08:58:48;11.03;;;6.23;;
5845;SDS011;2949;50.778;7.094;2023-04-06T09:01:14;9.87;;;6.27;;
5845;SDS011;2949;50.778;7.094;2023-04-06T09:03:44;11.90;;;7.10;;
5845;SDS011;2949;50.778;7.094;2023-04-06T09:06:11;13.00;;;6.83;;
5845;SDS011;2949;50.778;7.094;2023-04-06T09:08:38;14.37;;;6.20;;
5845;SDS011;2949;50.778;7.094;2023-04-06T09:11:05;13.07;;;7.50;;
5845;SDS011;2949;50.778;7.094;2023-04-06T09:13:31;12.03;;;7.13;;
5845;SDS011;2949;50.778;7.094;2023-04-06T09:16:08;15.30;;;7.87;;
5845;SDS011;2949;50.778;7.094;2023-04-06T09:18:34;11.50;;;7.13;;
5845;SDS011;2949;50.778;7.094;2023-04-06T09:21:03;12.80;;;6.90;;
5845;SDS011;2949;50.778;7.094;2023-04-06T09:23:30;12.80;;;7.00;;
5845;SDS011;2949;50.778;7.094;2023-04-06T09:28:46;17.80;;;6.90;;
5845;SDS011;2949;50.778;7.094;2023-04-06T09:31:16;14.70;;;7.20;;
5845;SDS011;2949;50.778;7.094;2023-04-06T09:33:53;12.43;;;7.07;;
5845;SDS011;2949;50.778;7.094;2023-04-06T09:36:19;13.00;;;7.63;;
5845;SDS011;2949;50.778;7.094;2023-04-06T09:38:55;13.87;;;6.87;;
5845;SDS011;2949;50.778;7.094;2023-04-06T09:41:29;13.17;;;7.07;;
5845;SDS011;2949;50.778;7.094;2023-04-06T09:44:05;18.17;;;7.63;;
5845;SDS011;2949;50.778;7.094;2023-04-06T09:46:36;13.20;;;7.73;;
5845;SDS011;2949;50.778;7.094;2023-04-06T09:49:04;13.80;;;7.93;;
5845;SDS011;2949;50.778;7.094;2023-04-06T09:51:31;14.90;;;7.43;;
5845;SDS011;2949;50.778;7.094;2023-04-06T09:54:03;15.67;;;7.60;;
5845;SDS011;2949;50.778;7.094;2023-04-06T09:56:31;18.57;;;8.67;;
5845;SDS011;2949;50.778;7.094;2023-04-06T09:59:02;17.50;;;8.33;;
5845;SDS011;2949;50.778;7.094;2023-04-06T10:01:32;14.43;;;7.70;;
5845;SDS011;2949;50.778;7.094;2023-04-06T10:06:43;24.23;;;9.73;;
5845;SDS011;2949;50.778;7.094;2023-04-06T10:09:12;18.27;;;9.10;;
5845;SDS011;2949;50.778;7.094;2023-04-06T10:11:39;16.90;;;8.40;;
5845;SDS011;2949;50.778;7.094;2023-04-06T10:14:05;20.50;;;8.80;;
5845;SDS011;2949;50.778;7.094;2023-04-06T10:16:31;19.93;;;9.20;;
5845;SDS011;2949;50.778;7.094;2023-04-06T10:18:59;15.53;;;9.27;;
5845;SDS011;2949;50.778;7.094;2023-04-06T10:21:32;15.23;;;8.67;;
5845;SDS011;2949;50.778;7.094;2023-04-06T10:23:59;21.17;;;9.63;;
5845;SDS011;2949;50.778;7.094;2023-04-06T10:26:26;16.60;;;9.67;;
5845;SDS011;2949;50.778;7.094;2023-04-06T10:28:52;19.47;;;10.27;;
5845;SDS011;2949;50.778;7.094;2023-04-06T10:31:25;25.23;;;10.17;;
5845;SDS011;2949;50.778;7.094;2023-04-06T10:36:26;19.93;;;10.40;;
5845;SDS011;2949;50.778;7.094;2023-04-06T10:38:53;16.20;;;9.23;;
5845;SDS011;2949;50.778;7.094;2023-04-06T10:41:22;18.67;;;10.77;;
5845;SDS011;2949;50.778;7.094;2023-04-06T10:43:54;19.03;;;10.47;;
5845;SDS011;2949;50.778;7.094;2023-04-06T10:46:24;16.87;;;10.07;;
5845;SDS011;2949;50.778;7.094;2023-04-06T10:48:51;20.47;;;9.90;;
5845;SDS011;2949;50.778;7.094;2023-04-06T10:51:17;18.20;;;9.30;;
5845;SDS011;2949;50.778;7.094;2023-04-06T10:53:47;16.50;;;9.60;;
5845;SDS011;2949;50.778;7.094;2023-04-06T10:56:17;16.47;;;9.27;;
5845;SDS011;2949;50.778;7.094;2023-04-06T10:58:50;20.43;;;9.60;;
5845;SDS011;2949;50.778;7.094;2023-04-06T11:01:18;20.53;;;9.67;;
5845;SDS011;2949;50.778;7.094;2023-04-06T11:03:46;17.53;;;9.80;;
5845;SDS011;2949;50.778;7.094;2023-04-06T11:06:27;16.83;;;7.70;;
5845;SDS011;2949;50.778;7.094;2023-04-06T11:08:56;19.30;;;10.17;;
5845;SDS011;2949;50.778;7.094;2023-04-06T11:11:23;19.50;;;10.20;;
5845;SDS011;2949;50.778;7.094;2023-04-06T11:13:54;19.23;;;9.57;;
5845;SDS011;2949;50.778;7.094;2023-04-06T11:16:22;23.13;;;9.10;;
5845;SDS011;2949;50.778;7.094;2023-04-06T11:18:49;24.10;;;10.00;;
5845;SDS011;2949;50.778;7.094;2023-04-06T11:21:20;20.13;;;10.30;;
5845;SDS011;2949;50.778;7.094;2023-04-06T11:26:45;21.10;;;9.90;;
5845;SDS011;2949;50.778;7.094;2023-04-06T11:29:13;24.33;;;10.10;;
5845;SDS011;2949;50.778;7.094;2023-04-06T11:31:48;18.90;;;8.90;;
5845;SDS011;2949;50.778;7.094;2023-04-06T11:34:18;20.97;;;10.40;;
5845;SDS011;2949;50.778;7.094;2023-04-06T11:36:46;18.60;;;10.40;;
5845;SDS011;2949;50.778;7.094;2023-04-06T11:39:13;18.67;;;9.97;;
5845;SDS011;2949;50.778;7.094;2023-04-06T11:41:47;20.60;;;9.73;;
5845;SDS011;2949;50.778;7.094;2023-04-06T11:44:26;17.87;;;9.70;;
5845;SDS011;2949;50.778;7.094;2023-04-06T11:46:54;14.73;;;9.00;;
5845;SDS011;2949;50.778;7.094;2023-04-06T11:49:26;16.97;;;9.37;;
5845;SDS011;2949;50.778;7.094;2023-04-06T11:51:52;14.37;;;8.27;;
5845;SDS011;2949;50.778;7.094;2023-04-06T11:54:17;16.90;;;8.70;;
5845;SDS011;2949;50.778;7.094;2023-04-06T11:56:53;19.23;;;9.13;;
5845;SDS011;2949;50.778;7.094;2023-04-06T11:59:19;12.63;;;8.40;;
5845;SDS011;2949;50.778;7.094;2023-04-06T12:01:46;25.40;;;9.67;;
5845;SDS011;2949;50.778;7.094;2023-04-06T12:04:12;25.33;;;9.30;;
5845;SDS011;2949;50.778;7.094;2023-04-06T12:06:37;18.70;;;8.93;;
5845;SDS011;2949;50.778;7.094;2023-04-06T12:09:03;16.50;;;8.53;;
5845;SDS011;2949;50.778;7.094;2023-04-06T12:11:29;18.23;;;7.67;;
5845;SDS011;2949;50.778;7.094;2023-04-06T12:13:54;18.23;;;8.43;;
5845;SDS011;2949;50.778;7.094;2023-04-06T12:16:20;15.77;;;8.00;;
5845;SDS011;2949;50.778;7.094;2023-04-06T12:18:45;19.83;;;9.27;;
5845;SDS011;2949;50.778;7.094;2023-04-06T12:21:11;14.80;;;7.80;;
5845;SDS011;2949;50.778;7.094;2023-04-06T12:23:36;16.30;;;8.60;;
5845;SDS011;2949;50.778;7.094;2023-04-06T12:26:02;15.70;;;8.90;;
5845;SDS011;2949;50.778;7.094;2023-04-06T12:28:28;18.90;;;8.80;;
5845;SDS011;2949;50.778;7.094;2023-04-06T12:30:54;14.80;;;8.07;;
5845;SDS011;2949;50.778;7.094;2023-04-06T12:33:20;12.50;;;7.20;;
5845;SDS011;2949;50.778;7.094;2023-04-06T12:35:46;13.17;;;8.30;;
5845;SDS011;2949;50.778;7.094;2023-04-06T12:38:11;13.63;;;8.07;;
5845;SDS011;2949;50.778;7.094;2023-04-06T12:40:37;15.10;;;7.50;;
5845;SDS011;2949;50.778;7.094;2023-04-06T12:43:04;15.00;;;8.00;;
5845;SDS011;2949;50.778;7.094;2023-04-06T12:45:32;12.70;;;7.97;;
5845;SDS011;2949;50.778;7.094;2023-04-06T12:47:58;12.00;;;7.20;;
5845;SDS011;2949;50.778;7.094;2023-04-06T12:50:24;14.20;;;7.43;;
5845;SDS011;2949;50.778;7.094;2023-04-06T12:52:51;15.20;;;8.90;;
5845;SDS011;2949;50.778;7.094;2023-04-06T12:55:17;13.50;;;8.20;;
5845;SDS011;2949;50.778;7.094;2023-04-06T12:57:42;11.60;;;7.70;;
5845;SDS011;2949;50.778;7.094;2023-04-06T13:00:08;16.33;;;6.97;;
5845;SDS011;2949;50.778;7.094;2023-04-06T13:02:34;11.73;;;6.87;;
5845;SDS011;2949;50.778;7.094;2023-04-06T13:05:00;15.63;;;7.23;;
5845;SDS011;2949;50.778;7.094;2023-04-06T13:07:26;11.73;;;6.40;;
5845;SDS011;2949;50.778;7.094;2023-04-06T13:09:51;13.80;;;6.47;;
5845;SDS011;2949;50.778;7.094;2023-04-06T13:12:17;15.80;;;7.30;;
5845;SDS011;2949;50.778;7.094;2023-04-06T13:14:43;12.90;;;7.80;;
5845;SDS011;2949;50.778;7.094;2023-04-06T13:17:09;12.63;;;7.63;;
5845;SDS011;2949;50.778;7.094;2023-04-06T13:19:34;15.37;;;8.10;;
5845;SDS011;2949;50.778;7.094;2023-04-06T13:22:01;9.03;;;5.77;;
5845;SDS011;2949;50.778;7.094;2023-04-06T13:24:27;8.37;;;4.90;;
5845;SDS011;2949;50.778;7.094;2023-04-06T13:26:53;8.40;;;4.43;;
5845;SDS011;2949;50.778;7.094;2023-04-06T13:29:18;8.33;;;4.53;;
5845;SDS011;2949;50.778;7.094;2023-04-06T13:31:44;8.70;;;4.77;;
5845;SDS011;2949;50.778;7.094;2023-04-06T13:34:10;7.70;;;4.00;;
5845;SDS011;2949;50.778;7.094;2023-04-06T13:36:36;6.40;;;3.60;;
5845;SDS011;2949;50.778;7.094;2023-04-06T13:39:01;6.93;;;4.77;;
5845;SDS011;2949;50.778;7.094;2023-04-06T13:41:27;7.23;;;4.10;;
5845;SDS011;2949;50.778;7.094;2023-04-06T13:43:52;5.70;;;4.77;;
5845;SDS011;2949;50.778;7.094;2023-04-06T13:46:18;9.23;;;4.83;;
5845;SDS011;2949;50.778;7.094;2023-04-06T13:48:44;10.47;;;5.53;;
5845;SDS011;2949;50.778;7.094;2023-04-06T13:51:10;7.37;;;3.73;;
5845;SDS011;2949;50.778;7.094;2023-04-06T13:53:36;7.00;;;4.47;;
5845;SDS011;2949;50.778;7.094;2023-04-06T13:56:02;6.60;;;4.47;;
5845;SDS011;2949;50.778;7.094;2023-04-06T13:58:27;9.60;;;6.10;;
5845;SDS011;2949;50.778;7.094;2023-04-06T14:00:53;8.00;;;5.60;;
5845;SDS011;2949;50.778;7.094;2023-04-06T14:03:18;10.10;;;6.10;;
5845;SDS011;2949;50.778;7.094;2023-04-06T14:05:45;15.33;;;6.27;;
5845;SDS011;2949;50.778;7.094;2023-04-06T14:08:10;11.57;;;6.27;;
5845;SDS011;2949;50.778;7.094;2023-04-06T14:10:37;11.43;;;5.97;;
5845;SDS011;2949;50.778;7.094;2023-04-06T14:13:06;9.40;;;5.13;;
5845;SDS011;2949;50.778;7.094;2023-04-06T14:15:32;12.30;;;6.27;;
5845;SDS011;2949;50.778;7.094;2023-04-06T14:17:59;7.53;;;5.17;;
5845;SDS011;2949;50.778;7.094;2023-04-06T14:20:25;9.17;;;6.20;;
5845;SDS011;2949;50.778;7.094;2023-04-06T14:22:51;8.83;;;5.63;;
5845;SDS011;2949;50.778;7.094;2023-04-06T14:25:17;9.27;;;5.90;;
5845;SDS011;2949;50.778;7.094;2023-04-06T14:27:43;10.47;;;5.77;;
5845;SDS011;2949;50.778;7.094;2023-04-06T14:30:09;10.87;;;6.17;;
5845;SDS011;2949;50.778;7.094;2023-04-06T14:32:35;9.70;;;5.83;;
5845;SDS011;2949;50.778;7.094;2023-04-06T14:35:02;10.07;;;6.30;;
5845;SDS011;2949;50.778;7.094;2023-04-06T14:37:28;6.80;;;4.97;;
5845;SDS011;2949;50.778;7.094;2023-04-06T14:39:54;12.40;;;6.40;;
5845;SDS011;2949;50.778;7.094;2023-04-06T14:42:19;10.27;;;6.00;;
5845;SDS011;2949;50.778;7.094;2023-04-06T14:44:45;10.23;;;6.67;;
5845;SDS011;2949;50.778;7.094;2023-04-06T14:47:11;20.80;;;12.83;;
5845;SDS011;2949;50.778;7.094;2023-04-06T14:49:39;11.87;;;5.97;;
5845;SDS011;2949;50.778;7.094;2023-04-06T14:52:05;8.90;;;5.70;;
5845;SDS011;2949;50.778;7.094;2023-04-06T14:54:30;8.00;;;5.40;;
5845;SDS011;2949;50.778;7.094;2023-04-06T14:56:56;9.67;;;5.60;;
5845;SDS011;2949;50.778;7.094;2023-04-06T14:59:23;12.80;;;5.73;;
5845;SDS011;2949;50.778;7.094;2023-04-06T15:01:49;11.80;;;5.57;;
5845;SDS011;2949;50.778;7.094;2023-04-06T15:04:16;5.90;;;3.87;;
5845;SDS011;2949;50.778;7.094;2023-04-06T15:06:41;11.17;;;3.77;;
5845;SDS011;2949;50.778;7.094;2023-04-06T15:09:07;5.43;;;3.30;;